sensor_id;sensor_type;location;lat;lon;timestamp;temperature;humidity
46494;DHT22;53214;49.314;6.280;2024-03-08T00:01:49;6.80;99.90
46494;DHT22;53214;49.314;6.280;2024-03-08T00:04:16;6.80;99.90
46494;DHT22;53214;49.314;6.280;2024-03-08T00:06:42;6.70;99.90
46494;DHT22;53214;49.314;6.280;2024-03-08T00:09:12;6.70;99.90
46494;DHT22;53214;49.314;6.280;2024-03-08T00:11:39;6.70;99.90
46494;DHT22;53214;49.314;6.280;2024-03-08T00:14:06;6.70;99.90
46494;DHT22;53214;49.314;6.280;2024-03-08T00:16:34;6.70;99.90
46494;DHT22;53214;49.314;6.280;2024-03-08T00:19:01;6.60;99.90
46494;DHT22;53214;49.314;6.280;2024-03-08T00:21:28;6.60;99.90
46494;DHT22;53214;49.314;6.280;2024-03-08T00:23:55;6.60;99.90
46494;DHT22;53214;49.314;6.280;2024-03-08T00:26:22;6.60;99.90
46494;DHT22;53214;49.314;6.280;2024-03-08T00:28:49;6.50;99.90
46494;DHT22;53214;49.314;6.280;2024-03-08T00:31:16;6.60;99.90
46494;DHT22;53214;49.314;6.280;2024-03-08T00:33:43;6.50;99.90
46494;DHT22;53214;49.314;6.280;2024-03-08T00:36:10;6.50;99.90
46494;DHT22;53214;49.314;6.280;2024-03-08T00:38:37;6.40;99.90
46494;DHT22;53214;49.314;6.280;2024-03-08T00:41:04;6.40;99.90
46494;DHT22;53214;49.314;6.280;2024-03-08T00:43:31;6.40;99.90
46494;DHT22;53214;49.314;6.280;2024-03-08T00:45:57;6.30;99.90
46494;DHT22;53214;49.314;6.280;2024-03-08T00:48:24;6.20;99.90
46494;DHT22;53214;49.314;6.280;2024-03-08T00:50:51;6.20;99.90
46494;DHT22;53214;49.314;6.280;2024-03-08T00:53:18;6.20;99.90
46494;DHT22;53214;49.314;6.280;2024-03-08T00:55:45;6.10;99.90
46494;DHT22;53214;49.314;6.280;2024-03-08T00:58:13;6.10;99.90
46494;DHT22;53214;49.314;6.280;2024-03-08T01:00:40;6.20;99.90
46494;DHT22;53214;49.314;6.280;2024-03-08T01:03:07;6.20;99.90
46494;DHT22;53214;49.314;6.280;2024-03-08T01:05:34;6.20;99.90
46494;DHT22;53214;49.314;6.280;2024-03-08T01:08:01;6.30;99.90
46494;DHT22;53214;49.314;6.280;2024-03-08T01:10:30;6.30;99.90
46494;DHT22;53214;49.314;6.280;2024-03-08T01:12:56;6.40;99.90
46494;DHT22;53214;49.314;6.280;2024-03-08T01:15:26;6.50;99.90
46494;DHT22;53214;49.314;6.280;2024-03-08T01:17:53;6.50;99.90
46494;DHT22;53214;49.314;6.280;2024-03-08T01:20:20;6.60;99.90
46494;DHT22;53214;49.314;6.280;2024-03-08T01:22:47;6.50;99.90
46494;DHT22;53214;49.314;6.280;2024-03-08T01:25:14;6.60;99.90
46494;DHT22;53214;49.314;6.280;2024-03-08T01:27:41;6.60;99.90
46494;DHT22;53214;49.314;6.280;2024-03-08T01:30:08;6.70;99.90
46494;DHT22;53214;49.314;6.280;2024-03-08T01:32:36;6.80;99.90
46494;DHT22;53214;49.314;6.280;2024-03-08T01:35:03;6.80;99.90
46494;DHT22;53214;49.314;6.280;2024-03-08T01:37:30;6.80;99.90
46494;DHT22;53214;49.314;6.280;2024-03-08T01:39:57;6.80;99.90
46494;DHT22;53214;49.314;6.280;2024-03-08T01:42:24;6.90;99.90
46494;DHT22;53214;49.314;6.280;2024-03-08T01:44:50;6.90;99.90
46494;DHT22;53214;49.314;6.280;2024-03-08T01:47:18;6.90;99.90
46494;DHT22;53214;49.314;6.280;2024-03-08T01:49:50;6.90;99.90
46494;DHT22;53214;49.314;6.280;2024-03-08T01:52:18;6.90;99.90
46494;DHT22;53214;49.314;6.280;2024-03-08T01:54:49;6.90;99.90
46494;DHT22;53214;49.314;6.280;2024-03-08T01:57:16;6.90;99.90
46494;DHT22;53214;49.314;6.280;2024-03-08T01:59:43;6.90;99.90
46494;DHT22;53214;49.314;6.280;2024-03-08T02:02:11;6.80;99.90
46494;DHT22;53214;49.314;6.280;2024-03-08T02:04:41;6.80;99.90
46494;DHT22;53214;49.314;6.280;2024-03-08T02:07:09;6.70;99.90
46494;DHT22;53214;49.314;6.280;2024-03-08T02:09:37;6.60;99.90
46494;DHT22;53214;49.314;6.280;2024-03-08T02:12:04;6.50;99.90
46494;DHT22;53214;49.314;6.280;2024-03-08T02:14:31;6.50;99.90
46494;DHT22;53214;49.314;6.280;2024-03-08T02:17:01;6.50;99.90
46494;DHT22;53214;49.314;6.280;2024-03-08T02:19:28;6.40;99.90
46494;DHT22;53214;49.314;6.280;2024-03-08T02:21:55;6.40;99.90
46494;DHT22;53214;49.314;6.280;2024-03-08T02:24:23;6.40;99.90
46494;DHT22;53214;49.314;6.280;2024-03-08T02:26:50;6.40;99.90
46494;DHT22;53214;49.314;6.280;2024-03-08T02:29:17;6.40;99.90
46494;DHT22;53214;49.314;6.280;2024-03-08T02:31:44;6.50;99.90
46494;DHT22;53214;49.314;6.280;2024-03-08T02:34:11;6.40;99.90
46494;DHT22;53214;49.314;6.280;2024-03-08T02:36:38;6.40;99.90
46494;DHT22;53214;49.314;6.280;2024-03-08T02:39:05;6.30;99.90
46494;DHT22;53214;49.314;6.280;2024-03-08T02:41:32;6.30;99.90
46494;DHT22;53214;49.314;6.280;2024-03-08T02:43:59;6.20;99.90
46494;DHT22;53214;49.314;6.280;2024-03-08T02:46:26;6.10;99.90
46494;DHT22;53214;49.314;6.280;2024-03-08T02:48:53;6.10;99.90
46494;DHT22;53214;49.314;6.280;2024-03-08T02:51:20;6.10;99.90
46494;DHT22;53214;49.314;6.280;2024-03-08T02:53:47;6.00;99.90
46494;DHT22;53214;49.314;6.280;2024-03-08T02:56:15;6.00;99.90
46494;DHT22;53214;49.314;6.280;2024-03-08T02:58:43;6.00;99.90
46494;DHT22;53214;49.314;6.280;2024-03-08T03:01:15;6.00;99.90
46494;DHT22;53214;49.314;6.280;2024-03-08T03:03:42;6.00;99.90
46494;DHT22;53214;49.314;6.280;2024-03-08T03:06:09;5.90;99.90
46494;DHT22;53214;49.314;6.280;2024-03-08T03:08:36;5.90;99.90
46494;DHT22;53214;49.314;6.280;2024-03-08T03:11:03;5.90;99.90
46494;DHT22;53214;49.314;6.280;2024-03-08T03:13:30;5.80;99.90
46494;DHT22;53214;49.314;6.280;2024-03-08T03:15:57;5.80;99.90
46494;DHT22;53214;49.314;6.280;2024-03-08T03:18:24;5.80;99.90
46494;DHT22;53214;49.314;6.280;2024-03-08T03:20:52;5.80;99.90
46494;DHT22;53214;49.314;6.280;2024-03-08T03:23:19;5.70;99.90
46494;DHT22;53214;49.314;6.280;2024-03-08T03:25:47;5.70;99.90
46494;DHT22;53214;49.314;6.280;2024-03-08T03:28:14;5.70;99.90
46494;DHT22;53214;49.314;6.280;2024-03-08T03:30:47;5.70;99.90
46494;DHT22;53214;49.314;6.280;2024-03-08T03:33:13;5.70;99.90
46494;DHT22;53214;49.314;6.280;2024-03-08T03:35:42;5.70;99.90
46494;DHT22;53214;49.314;6.280;2024-03-08T03:38:12;5.80;99.90
46494;DHT22;53214;49.314;6.280;2024-03-08T03:40:41;5.80;99.90
46494;DHT22;53214;49.314;6.280;2024-03-08T03:43:08;5.80;99.90
46494;DHT22;53214;49.314;6.280;2024-03-08T03:45:39;5.70;99.90
46494;DHT22;53214;49.314;6.280;2024-03-08T03:48:08;5.70;99.90
46494;DHT22;53214;49.314;6.280;2024-03-08T03:50:38;5.70;99.90
46494;DHT22;53214;49.314;6.280;2024-03-08T03:53:06;5.60;99.90
46494;DHT22;53214;49.314;6.280;2024-03-08T03:55:37;5.70;99.90
46494;DHT22;53214;49.314;6.280;2024-03-08T03:58:06;5.70;99.90
46494;DHT22;53214;49.314;6.280;2024-03-08T04:00:33;5.60;99.90
46494;DHT22;53214;49.314;6.280;2024-03-08T04:02:59;5.60;99.90
46494;DHT22;53214;49.314;6.280;2024-03-08T04:05:28;5.50;99.90
46494;DHT22;53214;49.314;6.280;2024-03-08T04:07:55;5.60;99.90
46494;DHT22;53214;49.314;6.280;2024-03-08T04:10:21;5.50;99.90
46494;DHT22;53214;49.314;6.280;2024-03-08T04:12:48;5.50;99.90
46494;DHT22;53214;49.314;6.280;2024-03-08T04:15:15;5.50;99.90
46494;DHT22;53214;49.314;6.280;2024-03-08T04:17:42;5.60;99.90
46494;DHT22;53214;49.314;6.280;2024-03-08T04:20:09;5.60;99.90
46494;DHT22;53214;49.314;6.280;2024-03-08T04:22:38;5.60;99.90
46494;DHT22;53214;49.314;6.280;2024-03-08T04:25:06;5.70;99.90
46494;DHT22;53214;49.314;6.280;2024-03-08T04:27:33;5.70;99.90
46494;DHT22;53214;49.314;6.280;2024-03-08T04:30:02;5.70;99.90
46494;DHT22;53214;49.314;6.280;2024-03-08T04:32:29;5.80;99.90
46494;DHT22;53214;49.314;6.280;2024-03-08T04:34:56;5.70;99.90
46494;DHT22;53214;49.314;6.280;2024-03-08T04:37:23;5.80;99.90
46494;DHT22;53214;49.314;6.280;2024-03-08T04:39:51;5.80;99.90
46494;DHT22;53214;49.314;6.280;2024-03-08T04:42:18;5.70;99.90
46494;DHT22;53214;49.314;6.280;2024-03-08T04:44:45;5.70;99.90
46494;DHT22;53214;49.314;6.280;2024-03-08T04:47:12;5.70;99.90
46494;DHT22;53214;49.314;6.280;2024-03-08T04:49:39;5.70;99.90
46494;DHT22;53214;49.314;6.280;2024-03-08T04:52:06;5.80;99.90
46494;DHT22;53214;49.314;6.280;2024-03-08T04:54:33;5.70;99.90
46494;DHT22;53214;49.314;6.280;2024-03-08T04:57:01;5.80;99.90
46494;DHT22;53214;49.314;6.280;2024-03-08T04:59:32;5.80;99.90
46494;DHT22;53214;49.314;6.280;2024-03-08T05:01:59;5.80;99.90
46494;DHT22;53214;49.314;6.280;2024-03-08T05:04:26;5.80;99.90
46494;DHT22;53214;49.314;6.280;2024-03-08T05:06:53;5.80;99.90
46494;DHT22;53214;49.314;6.280;2024-03-08T05:09:20;5.80;99.90
46494;DHT22;53214;49.314;6.280;2024-03-08T05:11:47;5.70;99.90
46494;DHT22;53214;49.314;6.280;2024-03-08T05:14:15;5.70;99.90
46494;DHT22;53214;49.314;6.280;2024-03-08T05:16:47;5.70;99.90
46494;DHT22;53214;49.314;6.280;2024-03-08T05:19:18;5.70;99.90
46494;DHT22;53214;49.314;6.280;2024-03-08T05:21:45;5.60;99.90
46494;DHT22;53214;49.314;6.280;2024-03-08T05:24:12;5.60;99.90
46494;DHT22;53214;49.314;6.280;2024-03-08T05:26:43;5.50;99.90
46494;DHT22;53214;49.314;6.280;2024-03-08T05:29:11;5.40;99.90
46494;DHT22;53214;49.314;6.280;2024-03-08T05:31:51;5.40;99.90
46494;DHT22;53214;49.314;6.280;2024-03-08T05:34:21;5.30;99.90
46494;DHT22;53214;49.314;6.280;2024-03-08T05:36:49;5.30;99.90
46494;DHT22;53214;49.314;6.280;2024-03-08T05:39:18;5.30;99.90
46494;DHT22;53214;49.314;6.280;2024-03-08T05:41:45;5.30;99.90
46494;DHT22;53214;49.314;6.280;2024-03-08T05:44:13;5.30;99.90
46494;DHT22;53214;49.314;6.280;2024-03-08T05:46:40;5.30;99.90
46494;DHT22;53214;49.314;6.280;2024-03-08T05:49:07;5.20;99.90
46494;DHT22;53214;49.314;6.280;2024-03-08T05:51:38;5.40;99.90
46494;DHT22;53214;49.314;6.280;2024-03-08T05:54:08;5.40;99.90
46494;DHT22;53214;49.314;6.280;2024-03-08T05:56:42;5.40;99.90
46494;DHT22;53214;49.314;6.280;2024-03-08T05:59:10;5.50;99.90
46494;DHT22;53214;49.314;6.280;2024-03-08T06:01:37;5.50;99.90
46494;DHT22;53214;49.314;6.280;2024-03-08T06:04:04;5.50;99.90
46494;DHT22;53214;49.314;6.280;2024-03-08T06:06:31;5.60;99.90
46494;DHT22;53214;49.314;6.280;2024-03-08T06:08:58;5.50;99.90
46494;DHT22;53214;49.314;6.280;2024-03-08T06:11:26;5.50;99.90
46494;DHT22;53214;49.314;6.280;2024-03-08T06:13:58;5.50;99.90
46494;DHT22;53214;49.314;6.280;2024-03-08T06:16:27;5.50;99.90
46494;DHT22;53214;49.314;6.280;2024-03-08T06:18:57;5.50;99.90
46494;DHT22;53214;49.314;6.280;2024-03-08T06:21:25;5.40;99.90
46494;DHT22;53214;49.314;6.280;2024-03-08T06:23:55;5.40;99.90
46494;DHT22;53214;49.314;6.280;2024-03-08T06:26:22;5.40;99.90
46494;DHT22;53214;49.314;6.280;2024-03-08T06:28:49;5.50;99.90
46494;DHT22;53214;49.314;6.280;2024-03-08T06:31:15;5.50;99.90
46494;DHT22;53214;49.314;6.280;2024-03-08T06:33:42;5.50;99.90
46494;DHT22;53214;49.314;6.280;2024-03-08T06:36:09;5.40;99.90
46494;DHT22;53214;49.314;6.280;2024-03-08T06:38:38;5.40;99.90
46494;DHT22;53214;49.314;6.280;2024-03-08T06:41:09;5.30;99.90
46494;DHT22;53214;49.314;6.280;2024-03-08T06:43:46;5.30;99.90
46494;DHT22;53214;49.314;6.280;2024-03-08T06:46:17;5.30;99.90
46494;DHT22;53214;49.314;6.280;2024-03-08T06:48:44;5.30;99.90
46494;DHT22;53214;49.314;6.280;2024-03-08T06:51:16;5.30;99.90
46494;DHT22;53214;49.314;6.280;2024-03-08T06:53:43;5.20;99.90
46494;DHT22;53214;49.314;6.280;2024-03-08T06:56:11;5.20;99.90
46494;DHT22;53214;49.314;6.280;2024-03-08T06:58:37;5.20;99.90
46494;DHT22;53214;49.314;6.280;2024-03-08T07:01:04;5.20;99.90
46494;DHT22;53214;49.314;6.280;2024-03-08T07:03:34;5.20;99.90
46494;DHT22;53214;49.314;6.280;2024-03-08T07:06:01;5.20;99.90
46494;DHT22;53214;49.314;6.280;2024-03-08T07:08:30;5.30;99.90
46494;DHT22;53214;49.314;6.280;2024-03-08T07:10:57;5.30;99.90
46494;DHT22;53214;49.314;6.280;2024-03-08T07:13:26;5.30;99.90
46494;DHT22;53214;49.314;6.280;2024-03-08T07:15:55;5.30;99.90
46494;DHT22;53214;49.314;6.280;2024-03-08T07:18:22;5.40;99.90
46494;DHT22;53214;49.314;6.280;2024-03-08T07:20:50;5.40;99.90
46494;DHT22;53214;49.314;6.280;2024-03-08T07:23:16;5.40;99.90
46494;DHT22;53214;49.314;6.280;2024-03-08T07:26:04;5.50;99.90
46494;DHT22;53214;49.314;6.280;2024-03-08T07:28:31;5.60;99.90
46494;DHT22;53214;49.314;6.280;2024-03-08T07:30:58;5.60;99.90
46494;DHT22;53214;49.314;6.280;2024-03-08T07:33:44;5.60;99.90
46494;DHT22;53214;49.314;6.280;2024-03-08T07:36:11;5.70;99.90
46494;DHT22;53214;49.314;6.280;2024-03-08T07:38:38;5.80;99.90
46494;DHT22;53214;49.314;6.280;2024-03-08T07:41:05;5.80;99.90
46494;DHT22;53214;49.314;6.280;2024-03-08T07:43:32;5.90;99.90
46494;DHT22;53214;49.314;6.280;2024-03-08T07:46:02;5.90;99.90
46494;DHT22;53214;49.314;6.280;2024-03-08T07:48:29;6.00;99.90
46494;DHT22;53214;49.314;6.280;2024-03-08T07:50:57;6.10;99.90
46494;DHT22;53214;49.314;6.280;2024-03-08T07:53:24;6.10;99.90
46494;DHT22;53214;49.314;6.280;2024-03-08T07:55:51;6.20;99.90
46494;DHT22;53214;49.314;6.280;2024-03-08T07:58:18;6.20;99.90
46494;DHT22;53214;49.314;6.280;2024-03-08T08:00:45;6.30;99.90
46494;DHT22;53214;49.314;6.280;2024-03-08T08:03:12;6.30;99.90
46494;DHT22;53214;49.314;6.280;2024-03-08T08:05:40;6.40;99.90
46494;DHT22;53214;49.314;6.280;2024-03-08T08:08:08;6.50;99.90
46494;DHT22;53214;49.314;6.280;2024-03-08T08:10:37;6.60;99.90
46494;DHT22;53214;49.314;6.280;2024-03-08T08:13:04;6.70;99.90
46494;DHT22;53214;49.314;6.280;2024-03-08T08:15:32;6.80;99.90
46494;DHT22;53214;49.314;6.280;2024-03-08T08:18:01;6.90;99.90
46494;DHT22;53214;49.314;6.280;2024-03-08T08:20:29;6.90;99.90
46494;DHT22;53214;49.314;6.280;2024-03-08T08:22:56;7.00;99.90
46494;DHT22;53214;49.314;6.280;2024-03-08T08:25:23;7.10;99.90
46494;DHT22;53214;49.314;6.280;2024-03-08T08:27:51;7.20;99.90
46494;DHT22;53214;49.314;6.280;2024-03-08T08:30:20;7.20;99.90
46494;DHT22;53214;49.314;6.280;2024-03-08T08:32:47;7.30;99.90
46494;DHT22;53214;49.314;6.280;2024-03-08T08:35:15;7.30;99.90
46494;DHT22;53214;49.314;6.280;2024-03-08T08:37:42;7.40;99.90
46494;DHT22;53214;49.314;6.280;2024-03-08T08:40:11;7.40;99.90
46494;DHT22;53214;49.314;6.280;2024-03-08T08:42:42;7.50;99.90
46494;DHT22;53214;49.314;6.280;2024-03-08T08:45:10;7.60;99.90
46494;DHT22;53214;49.314;6.280;2024-03-08T08:47:43;7.70;99.90
46494;DHT22;53214;49.314;6.280;2024-03-08T08:50:12;7.80;99.90
46494;DHT22;53214;49.314;6.280;2024-03-08T08:52:40;7.90;99.90
46494;DHT22;53214;49.314;6.280;2024-03-08T08:55:07;8.00;99.90
46494;DHT22;53214;49.314;6.280;2024-03-08T08:57:34;8.10;99.90
46494;DHT22;53214;49.314;6.280;2024-03-08T09:00:03;8.20;99.90
46494;DHT22;53214;49.314;6.280;2024-03-08T09:02:34;8.20;99.90
46494;DHT22;53214;49.314;6.280;2024-03-08T09:05:01;8.30;99.90
46494;DHT22;53214;49.314;6.280;2024-03-08T09:07:29;8.40;99.90
46494;DHT22;53214;49.314;6.280;2024-03-08T09:09:56;8.50;99.90
46494;DHT22;53214;49.314;6.280;2024-03-08T09:12:25;8.60;99.90
46494;DHT22;53214;49.314;6.280;2024-03-08T09:14:52;8.60;99.90
46494;DHT22;53214;49.314;6.280;2024-03-08T09:17:19;8.60;99.90
46494;DHT22;53214;49.314;6.280;2024-03-08T09:19:47;8.60;99.90
46494;DHT22;53214;49.314;6.280;2024-03-08T09:22:14;8.70;99.90
46494;DHT22;53214;49.314;6.280;2024-03-08T09:24:42;8.70;99.90
46494;DHT22;53214;49.314;6.280;2024-03-08T09:27:12;8.80;99.90
46494;DHT22;53214;49.314;6.280;2024-03-08T09:29:40;9.00;99.90
46494;DHT22;53214;49.314;6.280;2024-03-08T09:32:07;9.00;99.90
46494;DHT22;53214;49.314;6.280;2024-03-08T09:34:34;9.10;99.90
46494;DHT22;53214;49.314;6.280;2024-03-08T09:37:04;9.30;99.90
46494;DHT22;53214;49.314;6.280;2024-03-08T09:39:31;9.30;99.90
46494;DHT22;53214;49.314;6.280;2024-03-08T09:42:01;9.40;99.90
46494;DHT22;53214;49.314;6.280;2024-03-08T09:44:28;9.40;99.90
46494;DHT22;53214;49.314;6.280;2024-03-08T09:46:55;9.50;99.90
46494;DHT22;53214;49.314;6.280;2024-03-08T09:49:25;9.60;99.90
46494;DHT22;53214;49.314;6.280;2024-03-08T09:51:52;9.70;99.90
46494;DHT22;53214;49.314;6.280;2024-03-08T09:54:20;9.80;99.90
46494;DHT22;53214;49.314;6.280;2024-03-08T09:56:52;9.80;99.90
46494;DHT22;53214;49.314;6.280;2024-03-08T09:59:19;9.90;99.90
46494;DHT22;53214;49.314;6.280;2024-03-08T10:01:49;10.00;99.90
46494;DHT22;53214;49.314;6.280;2024-03-08T10:04:16;10.00;99.90
46494;DHT22;53214;49.314;6.280;2024-03-08T10:06:44;10.00;99.90
46494;DHT22;53214;49.314;6.280;2024-03-08T10:09:14;10.10;99.90
46494;DHT22;53214;49.314;6.280;2024-03-08T10:11:40;10.10;99.90
46494;DHT22;53214;49.314;6.280;2024-03-08T10:14:11;10.30;99.90
46494;DHT22;53214;49.314;6.280;2024-03-08T10:16:38;10.30;99.90
46494;DHT22;53214;49.314;6.280;2024-03-08T10:19:07;10.40;99.90
46494;DHT22;53214;49.314;6.280;2024-03-08T10:21:34;10.40;99.90
46494;DHT22;53214;49.314;6.280;2024-03-08T10:24:02;10.50;99.90
46494;DHT22;53214;49.314;6.280;2024-03-08T10:26:30;10.50;99.90
46494;DHT22;53214;49.314;6.280;2024-03-08T10:28:57;10.50;99.90
46494;DHT22;53214;49.314;6.280;2024-03-08T10:31:24;10.60;99.90
46494;DHT22;53214;49.314;6.280;2024-03-08T10:33:52;10.70;99.90
46494;DHT22;53214;49.314;6.280;2024-03-08T10:36:19;10.80;99.90
46494;DHT22;53214;49.314;6.280;2024-03-08T10:38:46;10.90;99.90
46494;DHT22;53214;49.314;6.280;2024-03-08T10:41:15;11.00;99.90
46494;DHT22;53214;49.314;6.280;2024-03-08T10:44:10;11.10;99.90
46494;DHT22;53214;49.314;6.280;2024-03-08T10:49:17;11.30;99.90
46494;DHT22;53214;49.314;6.280;2024-03-08T10:51:46;11.30;99.90
46494;DHT22;53214;49.314;6.280;2024-03-08T10:54:19;11.40;99.90
46494;DHT22;53214;49.314;6.280;2024-03-08T10:56:48;11.50;99.90
46494;DHT22;53214;49.314;6.280;2024-03-08T10:59:17;11.50;99.90
46494;DHT22;53214;49.314;6.280;2024-03-08T11:01:45;11.60;99.90
46494;DHT22;53214;49.314;6.280;2024-03-08T11:04:13;11.70;99.90
46494;DHT22;53214;49.314;6.280;2024-03-08T11:06:43;11.70;99.90
46494;DHT22;53214;49.314;6.280;2024-03-08T11:09:31;11.90;99.90
46494;DHT22;53214;49.314;6.280;2024-03-08T11:14:59;12.10;99.90
46494;DHT22;53214;49.314;6.280;2024-03-08T11:19:59;12.00;99.90
46494;DHT22;53214;49.314;6.280;2024-03-08T11:22:30;12.10;99.90
46494;DHT22;53214;49.314;6.280;2024-03-08T11:25:02;12.00;99.90
46494;DHT22;53214;49.314;6.280;2024-03-08T11:27:30;11.80;99.90
46494;DHT22;53214;49.314;6.280;2024-03-08T11:32:45;11.90;99.90
46494;DHT22;53214;49.314;6.280;2024-03-08T11:35:20;12.20;99.90
46494;DHT22;53214;49.314;6.280;2024-03-08T11:37:48;12.40;99.90
46494;DHT22;53214;49.314;6.280;2024-03-08T11:40:15;12.70;99.90
46494;DHT22;53214;49.314;6.280;2024-03-08T11:42:46;12.80;99.90
46494;DHT22;53214;49.314;6.280;2024-03-08T11:45:17;12.70;99.90
46494;DHT22;53214;49.314;6.280;2024-03-08T11:47:45;12.70;99.90
46494;DHT22;53214;49.314;6.280;2024-03-08T11:50:17;12.50;99.90
46494;DHT22;53214;49.314;6.280;2024-03-08T11:52:46;12.40;99.90
46494;DHT22;53214;49.314;6.280;2024-03-08T11:55:13;12.50;99.90
46494;DHT22;53214;49.314;6.280;2024-03-08T11:57:40;12.60;99.90
46494;DHT22;53214;49.314;6.280;2024-03-08T12:00:17;12.60;99.90
46494;DHT22;53214;49.314;6.280;2024-03-08T12:03:04;12.80;99.90
46494;DHT22;53214;49.314;6.280;2024-03-08T12:05:31;13.00;99.90
46494;DHT22;53214;49.314;6.280;2024-03-08T12:08:01;13.00;99.90
46494;DHT22;53214;49.314;6.280;2024-03-08T12:10:29;13.00;99.90
46494;DHT22;53214;49.314;6.280;2024-03-08T12:12:58;12.90;99.90
46494;DHT22;53214;49.314;6.280;2024-03-08T12:15:30;12.90;99.90
46494;DHT22;53214;49.314;6.280;2024-03-08T12:17:59;12.90;99.90
46494;DHT22;53214;49.314;6.280;2024-03-08T12:20:28;12.80;99.90
46494;DHT22;53214;49.314;6.280;2024-03-08T12:22:57;12.70;99.90
46494;DHT22;53214;49.314;6.280;2024-03-08T12:25:30;12.70;99.90
46494;DHT22;53214;49.314;6.280;2024-03-08T12:28:11;12.80;99.90
46494;DHT22;53214;49.314;6.280;2024-03-08T12:30:50;12.90;99.90
46494;DHT22;53214;49.314;6.280;2024-03-08T12:33:19;13.00;99.90
46494;DHT22;53214;49.314;6.280;2024-03-08T12:35:53;13.00;99.90
46494;DHT22;53214;49.314;6.280;2024-03-08T12:38:22;13.10;99.90
46494;DHT22;53214;49.314;6.280;2024-03-08T12:40:58;13.10;99.90
46494;DHT22;53214;49.314;6.280;2024-03-08T12:43:26;13.30;99.90
46494;DHT22;53214;49.314;6.280;2024-03-08T12:45:52;13.40;99.90
46494;DHT22;53214;49.314;6.280;2024-03-08T12:48:21;13.60;99.90
46494;DHT22;53214;49.314;6.280;2024-03-08T12:50:48;13.80;99.90
46494;DHT22;53214;49.314;6.280;2024-03-08T12:53:15;13.90;99.90
46494;DHT22;53214;49.314;6.280;2024-03-08T12:55:42;13.90;99.90
46494;DHT22;53214;49.314;6.280;2024-03-08T12:58:09;13.90;99.90
46494;DHT22;53214;49.314;6.280;2024-03-08T13:00:36;13.80;99.90
46494;DHT22;53214;49.314;6.280;2024-03-08T13:03:03;13.70;99.90
46494;DHT22;53214;49.314;6.280;2024-03-08T13:05:30;13.60;99.90
46494;DHT22;53214;49.314;6.280;2024-03-08T13:07:57;13.50;99.90
46494;DHT22;53214;49.314;6.280;2024-03-08T13:10:24;13.40;99.90
46494;DHT22;53214;49.314;6.280;2024-03-08T13:12:51;13.30;99.90
46494;DHT22;53214;49.314;6.280;2024-03-08T13:15:20;13.20;99.90
46494;DHT22;53214;49.314;6.280;2024-03-08T13:17:48;13.00;99.90
46494;DHT22;53214;49.314;6.280;2024-03-08T13:20:15;12.90;99.90
46494;DHT22;53214;49.314;6.280;2024-03-08T13:22:56;12.80;99.90
46494;DHT22;53214;49.314;6.280;2024-03-08T13:25:25;13.00;99.90
46494;DHT22;53214;49.314;6.280;2024-03-08T13:27:52;13.20;99.90
46494;DHT22;53214;49.314;6.280;2024-03-08T13:30:20;13.60;99.90
46494;DHT22;53214;49.314;6.280;2024-03-08T13:32:52;13.80;99.90
46494;DHT22;53214;49.314;6.280;2024-03-08T13:35:19;13.80;99.90
46494;DHT22;53214;49.314;6.280;2024-03-08T13:37:51;13.80;99.90
46494;DHT22;53214;49.314;6.280;2024-03-08T13:40:18;13.70;99.90
46494;DHT22;53214;49.314;6.280;2024-03-08T13:42:47;13.60;99.90
46494;DHT22;53214;49.314;6.280;2024-03-08T13:45:16;13.50;99.90
46494;DHT22;53214;49.314;6.280;2024-03-08T13:47:50;13.40;99.90
46494;DHT22;53214;49.314;6.280;2024-03-08T13:50:21;13.40;99.90
46494;DHT22;53214;49.314;6.280;2024-03-08T13:52:49;13.40;99.90
46494;DHT22;53214;49.314;6.280;2024-03-08T13:55:22;13.60;99.90
46494;DHT22;53214;49.314;6.280;2024-03-08T13:57:50;13.60;99.90
46494;DHT22;53214;49.314;6.280;2024-03-08T14:00:19;13.60;99.90
46494;DHT22;53214;49.314;6.280;2024-03-08T14:02:49;13.50;99.90
46494;DHT22;53214;49.314;6.280;2024-03-08T14:05:16;13.40;99.90
46494;DHT22;53214;49.314;6.280;2024-03-08T14:07:45;13.30;99.90
46494;DHT22;53214;49.314;6.280;2024-03-08T14:10:15;13.40;99.90
46494;DHT22;53214;49.314;6.280;2024-03-08T14:12:43;13.40;99.90
46494;DHT22;53214;49.314;6.280;2024-03-08T14:15:11;13.40;99.90
46494;DHT22;53214;49.314;6.280;2024-03-08T14:17:39;13.30;99.90
46494;DHT22;53214;49.314;6.280;2024-03-08T14:20:07;13.20;99.90
46494;DHT22;53214;49.314;6.280;2024-03-08T14:22:35;13.20;99.90
46494;DHT22;53214;49.314;6.280;2024-03-08T14:25:02;13.30;99.90
46494;DHT22;53214;49.314;6.280;2024-03-08T14:27:31;13.40;99.90
46494;DHT22;53214;49.314;6.280;2024-03-08T14:29:59;13.40;99.90
46494;DHT22;53214;49.314;6.280;2024-03-08T14:32:26;13.40;99.90
46494;DHT22;53214;49.314;6.280;2024-03-08T14:34:55;13.50;99.90
46494;DHT22;53214;49.314;6.280;2024-03-08T14:37:22;13.50;99.90
46494;DHT22;53214;49.314;6.280;2024-03-08T14:39:54;13.60;99.90
46494;DHT22;53214;49.314;6.280;2024-03-08T14:42:23;13.60;99.90
46494;DHT22;53214;49.314;6.280;2024-03-08T14:44:50;13.60;99.90
46494;DHT22;53214;49.314;6.280;2024-03-08T14:47:21;13.60;99.90
46494;DHT22;53214;49.314;6.280;2024-03-08T14:49:48;13.50;99.90
46494;DHT22;53214;49.314;6.280;2024-03-08T14:52:15;13.50;99.90
46494;DHT22;53214;49.314;6.280;2024-03-08T14:55:03;13.40;99.90
46494;DHT22;53214;49.314;6.280;2024-03-08T14:57:30;13.50;99.90
46494;DHT22;53214;49.314;6.280;2024-03-08T14:59:59;13.50;99.90
46494;DHT22;53214;49.314;6.280;2024-03-08T15:02:32;13.40;99.90
46494;DHT22;53214;49.314;6.280;2024-03-08T15:05:03;13.30;99.90
46494;DHT22;53214;49.314;6.280;2024-03-08T15:07:35;13.30;99.90
46494;DHT22;53214;49.314;6.280;2024-03-08T15:10:02;13.30;99.90
46494;DHT22;53214;49.314;6.280;2024-03-08T15:12:29;13.30;99.90
46494;DHT22;53214;49.314;6.280;2024-03-08T15:14:56;13.30;99.90
46494;DHT22;53214;49.314;6.280;2024-03-08T15:17:23;13.30;99.90
46494;DHT22;53214;49.314;6.280;2024-03-08T15:19:51;13.40;99.90
46494;DHT22;53214;49.314;6.280;2024-03-08T15:22:19;13.40;99.90
46494;DHT22;53214;49.314;6.280;2024-03-08T15:24:46;13.30;99.90
46494;DHT22;53214;49.314;6.280;2024-03-08T15:27:12;13.10;99.90
46494;DHT22;53214;49.314;6.280;2024-03-08T15:29:39;13.00;99.90
46494;DHT22;53214;49.314;6.280;2024-03-08T15:32:06;12.80;99.90
46494;DHT22;53214;49.314;6.280;2024-03-08T15:34:36;12.60;99.90
46494;DHT22;53214;49.314;6.280;2024-03-08T15:37:05;12.40;99.90
46494;DHT22;53214;49.314;6.280;2024-03-08T15:39:32;12.30;99.90
46494;DHT22;53214;49.314;6.280;2024-03-08T15:42:00;12.10;99.90
46494;DHT22;53214;49.314;6.280;2024-03-08T15:44:27;12.00;99.90
46494;DHT22;53214;49.314;6.280;2024-03-08T15:46:55;11.90;99.90
46494;DHT22;53214;49.314;6.280;2024-03-08T15:49:22;11.80;99.90
46494;DHT22;53214;49.314;6.280;2024-03-08T15:51:51;11.70;99.90
46494;DHT22;53214;49.314;6.280;2024-03-08T15:54:17;11.60;99.90
46494;DHT22;53214;49.314;6.280;2024-03-08T15:56:45;11.60;99.90
46494;DHT22;53214;49.314;6.280;2024-03-08T15:59:12;11.60;99.90